Airfield :
LOGIN :

Register | Disclaimer

   EN    FR    IT 

 










Legend :    VFR   Marginal VFR   IFR   Intensive IFR   Very Intensive IFR
Visi :
Ceiling :
>= 8 km
>= 3000ft
5 to 8 km
1000 to 3000 ft
1500m to 5 km
500 to 1000 ft
800 to 1500m
200 to 500 ft
< 800m
< 200 ft
Symbols :   Thunderstorms  Fog  Heavy snow  Heavy precipitations  Wind > 20 kt
SIGMETs :     Misc.  Thunderstorms  Icing  Turbulence  Mountain Waves  Volcanic Ashes






- Airport Elevation : 215 ft
- IATA code : ABZ


EGPD - Aberdeen / Dyce

CURRENT METAR :
  • 220850Z 34012KT 5000 -RA BKN006 09/08 Q0999 TEMPO BKN008

EXPIRED METARs :
  • 220820Z 35011KT 2000 -RA BKN006 09/09 Q0998 TEMPO 6000 BKN008
  • 220750Z 36012KT 3000 -RA BKN006 09/09 Q0997 RERA TEMPO 6000 BKN008
  • 220720Z 36011KT 4000 RA BKN006 10/09 Q0997 RERA TEMPO 6000 -RA BKN008
  • 220650Z 36009KT 3000 +RA BKN006 10/10 Q0996 TEMPO 5000 RA BKN008
  • 220620Z 01012KT 3000 +RA BKN006 10/10 Q0995 TEMPO 5000 RA BKN008

TAF TAF EGPD
Valid from the 22 at 06:00 until the 23 at 06:00 UTC


220500Z 2206/2306 01010KT 9999 SCT008 BKN016
TEMPO 2206/2213 6000 RA BKN006
PROB40
TEMPO 2206/2210 03015G25KT 2500 +RA RADZ BR BKN004
BECMG 2214/2217 26005KT
TEMPO 2221/2302 BKN012
PROB30
TEMPO 2221/2302 6000 SHRA BKN006



MET'MAP, your aeronautical weather chart ! - Copyright ORBIFLY December 2007 - Disclaimer

ORBIFLY MET'MAP TEAM :

Programming & Development : Alexandra Zaïnal
Concept & original design : Baudouin d'Aumeries
Assistance for programming : Marc-Olivier Méhu
Technical & hardware support : Manuel Goepfert

Contact : metmap@orbifly.com




SOURCES & CREDITS :

   NOAA